< < Back
Terminal Aerodrome Forecast


Current Version              Previous Versions:   1  2  3  4  5  6  7  8  9  

Terminal Aerodrome Forecast

860
FTUS44 KBMX 191700
TAFANB
TAF
KANB 191724Z 1918/2018 VRB03KT P6SM SKC=



Latest METAR

872
SAUS70 KWBC 201300 RRC
MTRANB
METAR KANB 201253Z AUTO 09003KT 10SM CLR 09/08 A3012 RMK AO2 SLP202
T00890078


USA.gov is the U.S. government's official web portal to all federal, state and local government web resources and services.